Downloads

-JavaCPC -demo -emu -j-cpc_ani -tools 0-9 A B C D E F G H I J K L M N O P Q R S T U V W X Y Z ZZZ_UNK roms
FILEDATESIZEDLs
KTris by Richard Wilson (PD).zip 2017-04-21 16:14 2 Kb21
Kaiser (G) (19xx).zip 2017-04-21 16:13 91 Kb21
Kane & Nebulus & Renaud - Marche a l'Ombre.zip 2017-04-21 16:13 95 Kb8
Kane (UK) (1986).zip 2017-04-21 16:13 28 Kb16
Kane (UK) (1986) [a1].zip 2017-04-21 16:13 80 Kb22
Kane (UK) (1986) [a2].zip 2017-04-21 16:13 38 Kb18
Kane (UK) (1986) [t1].zip 2017-04-21 16:13 38 Kb19
Karateka (F) (1986).zip 2017-04-21 16:13 50 Kb24
Karateka (F) (1986) [f1].zip 2017-04-21 16:13 50 Kb20
Karateka (F) (1986) [t1].zip 2017-04-21 16:13 50 Kb18
Karateka (F) (1990).zip 2017-04-21 16:13 49 Kb18
Karateka (F) (1990) [t1].zip 2017-04-21 16:13 49 Kb20
Karateka (F).dsk 2017-04-21 16:13 192 Kb26
Karl's Treasure Hunt (UK) (1984).zip 2017-04-21 16:13 11 Kb21
Karl's Treasure Hunt (UK) (1984) [a1].zip 2017-04-21 16:13 84 Kb19
Karl's Treasure Hunt (UK) (1984) [a2].zip 2017-04-21 16:13 11 Kb21
Karnov (E) - Disk 1A.dsk 2017-04-21 16:13 214 Kb21
Karnov (E) - Disk 1B.dsk 2017-04-21 16:13 214 Kb21
Karnov (UK) (1988) (Disk 1 of 2).zip 2017-04-21 16:13 73 Kb23
Karnov (UK) (1988) (Disk 1 of 2) [a1].zip 2017-04-21 16:13 56 Kb17
Karnov (UK) (1988) (Disk 1 of 2) [t1].zip 2017-04-21 16:13 159 Kb23
Karnov (UK) (1988) (Disk 1 of 2) [t2].zip 2017-04-21 16:13 73 Kb21
Karnov (UK) (1988) (Disk 2 of 2).zip 2017-04-21 16:13 62 Kb19
Karnov (UK) (1988) (Disk 2 of 2) [a1].zip 2017-04-21 16:13 105 Kb23
Karnov (UK) (1988) (Disk 2 of 2) [t2].zip 2017-04-21 16:13 62 Kb26
Kat Trap (E).dsk 2017-04-21 16:13 91 Kb22
Kat Trap (UK) (1987).zip 2017-04-21 16:13 34 Kb22
Keep Yourself Alive (F) (1987).zip 2017-04-21 16:13 19 Kb22
Kenny Dalglish Soccer Manager (E).cdt 2017-04-21 16:13 57 Kb21
Kenny Dalglish Soccer Manager (UK) (1989).zip 2017-04-21 16:13 25 Kb26
Kenny Dalglish Soccer Match (UK) (1990).zip 2017-04-21 16:13 29 Kb21
Kentilla (UK) (1985).zip 2017-04-21 16:13 23 Kb23
Kentilla (UK) (1985) [a1].zip 2017-04-21 16:13 30 Kb21
Kentucky Racing (E).cdt 2017-04-21 16:13 45 Kb24
Kentucky Racing (UK) (1990).zip 2017-04-21 16:13 24 Kb19
Kentucky Racing (UK) (1990) [f1].zip 2017-04-21 16:13 24 Kb22
Kessia (F) (19xx).zip 2017-04-21 16:13 72 Kb19
Kettle (E).dsk 2017-04-21 16:13 193 Kb22
Kettle (UK) (1986).zip 2017-04-21 16:13 21 Kb25
Kevin Thacker's CPC Guide (UK) (19xx) (PD) (Disk 1 of 2).zip 2017-04-21 16:13 47 Kb21
Kevin Thacker's CPC Guide (UK) (19xx) (PD) (Disk 2 of 2).zip 2017-04-21 16:13 41 Kb24
Key Factor, The (UK) (1985).zip 2017-04-21 16:13 13 Kb26
Kick Off (UK,F,G,S,I) (1990).zip 2017-04-21 16:13 27 Kb22
Kick Off (UK,F,G,S,I) (1990) [a1].zip 2017-04-21 16:13 131 Kb21
Kick Off (UK,F,G,S,I) (1990) [a2].zip 2017-04-21 16:13 31 Kb21
Kick Off 2 (E) - Disk 1A.dsk 2017-04-21 16:13 178 Kb24
Kick Off 2 (E) - Disk 1B.dsk 2017-04-21 16:13 178 Kb23
Kick Off 2 (F) (1990).zip 2017-04-21 16:13 68 Kb22
Kick Off 2 (F) (1990) [a1].zip 2017-04-21 16:13 68 Kb25
Kikstart II (UK) (1988).zip 2017-04-21 16:13 24 Kb21
Kikstart II (UK) (1988) [a1].zip 2017-04-21 16:13 23 Kb25
Killapede (UK) (1986).zip 2017-04-21 16:13 26 Kb19
Killapede (UK) (1986) [a1].zip 2017-04-21 16:13 26 Kb22
Killapede (UK) (1986) [a2].zip 2017-04-21 16:13 32 Kb24
Killapede (UK) (1986) [a3].zip 2017-04-21 16:13 30 Kb23
Killed Until Dead (UK) (1987) (Disk 1 of 2).zip 2017-04-21 16:13 50 Kb21
Killed Until Dead (UK) (1987) (Disk 2 of 2).zip 2017-04-21 16:13 62 Kb21
Killer Ball (UK) (1991).zip 2017-04-21 16:14 103 Kb21
Killer Ball (UK) (1991) [a1].zip 2017-04-21 16:13 103 Kb21
Killer Ball (UK) (1991) [a2].zip 2017-04-21 16:13 76 Kb21
Killer Ball (UK) (1991) [a3].zip 2017-04-21 16:13 96 Kb21
Killer Cobra (E).cdt 2017-04-21 16:14 49 Kb22
Killer Cobra (UK) (1987).zip 2017-04-21 16:14 27 Kb20
Killer Cobra (UK) (1987) [a1].zip 2017-04-21 16:14 27 Kb20
Killer Cobra (UK) (1987) [a2].zip 2017-04-21 16:14 31 Kb21
Killer Gorilla & Knight Lore & Laserwarp & Molecule Man & Zaxx (F).zip 2017-04-21 16:14 82 Kb10
Killer Gorilla (UK) (1984).zip 2017-04-21 16:14 19 Kb22
Killer Gorilla (UK) (1984) [a1].zip 2017-04-21 16:14 19 Kb21
Killer Gorilla (UK) (1984) [a2].zip 2017-04-21 16:14 15 Kb21
Killer Gorilla (UK) (1984) [a3].zip 2017-04-21 16:14 18 Kb22
Killer Gorilla (UK) (1984) [b1].zip 2017-04-21 16:14 19 Kb18
Killer Gorilla (UK) (1984) [b2].zip 2017-04-21 16:14 19 Kb23
Killer Ring (UK) (1987).zip 2017-04-21 16:14 16 Kb21
Killer Ring (UK) (1987) [a1].zip 2017-04-21 16:14 16 Kb22
Kiloroid (UK) (19xx).zip 2017-04-21 16:14 2 Kb21
Kim (F) (1986).zip 2017-04-21 16:14 9 Kb20
Kinetic (UK) (1987).zip 2017-04-21 16:14 35 Kb25
Kinetic (UK) (1987) [a1].zip 2017-04-21 16:14 36 Kb22
Kinetic (UK) (1987) [a2].zip 2017-04-21 16:14 35 Kb23
Kinetik (E).dsk 2017-04-21 16:14 195 Kb26
Kingdom of Hamil (UK) (1987).zip 2017-04-21 16:14 57 Kb21
Kingdoms (UK) (1985).zip 2017-04-21 16:14 5 Kb22
Kit de Telechargement - Telecharge Amstrad CPC (F).dsk 2017-04-21 16:14 217 Kb24
Kit de Telechargement pour Amstrad CPC (F).dsk 2017-04-21 16:14 191 Kb43
Klax & Meynaumede (F) & Nervous Break Down (F) & Skweek.zip 2017-04-21 16:14 97 Kb12
Klax (E).dsk 2017-04-21 16:14 172 Kb21
Klax (UK) (1990) (CPM).zip 2017-04-21 16:14 44 Kb19
Klax (UK) (1990) (CPM) [a1].zip 2017-04-21 16:14 44 Kb23
Klax (UK) (1990) (CPM Version).zip 2017-04-21 16:14 43 Kb23
Klax (UK) (1990) (CPM Version) [a1].zip 2017-04-21 16:14 43 Kb21
Klax (UK) (1990) (Cart).zip 2017-04-21 16:14 41 Kb22
Klax (UK) (1990).zip 2017-04-21 16:14 42 Kb23
Klax (UK) (1990) [a1].zip 2017-04-21 16:14 42 Kb22
Klax (UK) (1990) [h1].zip 2017-04-21 16:14 52 Kb22
Klax (UK) (1990) [h2].zip 2017-04-21 16:14 54 Kb25
Knaves and thou Prisoners (UK) (19xx).zip 2017-04-21 16:14 8 Kb22
Knight Force (F) (1989) (Disk 1 of 2).zip 2017-04-21 16:14 54 Kb23
Knight Force (F) (1989) (Disk 1 of 2) [t1].zip 2017-04-21 16:14 55 Kb21
Knight Force (F) (1989) (Disk 1 of 2) [t2] & Power Drift.zip 2017-04-21 16:14 108 Kb10
Knight Force (F) (1989) (Disk 1 of 2) [t2].zip 2017-04-21 16:14 75 Kb22
Knight Force (F) (1989) (Disk 2 of 2).zip 2017-04-21 16:14 76 Kb22
Knight Force (F) - Disk 1A.dsk 2017-04-21 16:14 456 Kb22
Knight Force (F) - Disk 1B.dsk 2017-04-21 16:14 627 Kb28
Knight Games (E) - Side A.cdt 2017-04-21 16:14 166 Kb24
Knight Games (E) - Side B.cdt 2017-04-21 16:14 142 Kb21
Knight Games (UK) (1986) (Disk 1 of 2).zip 2017-04-21 16:14 88 Kb21
Knight Games (UK) (1986) (Disk 1 of 2) [a1].zip 2017-04-21 16:14 83 Kb19
Knight Games (UK) (1986) (Disk 1 of 2) [a2].zip 2017-04-21 16:14 83 Kb22
Knight Games (UK) (1986) (Disk 1 of 2) [a3].zip 2017-04-21 16:14 103 Kb20
Knight Games (UK) (1986) (Disk 2 of 2).zip 2017-04-21 16:14 94 Kb22
Knight Games (UK) (1986) (Disk 2 of 2) [a1].zip 2017-04-21 16:14 76 Kb21
Knight Games (UK) (1986) (Disk 2 of 2) [a2].zip 2017-04-21 16:14 79 Kb20
Knight Games (UK) (1986) (Disk 2 of 2) [a3].zip 2017-04-21 16:14 109 Kb20
Knight Games (UK) (1986) [f1][t1].zip 2017-04-21 16:14 179 Kb22
Knight Lore (E).cdt 2017-04-21 16:14 42 Kb22
Knight Lore (UK) (1984).zip 2017-04-21 16:14 25 Kb19
Knight Lore (UK) (1984) [a1].zip 2017-04-21 16:14 25 Kb22
Knight Lore (UK) (1984) [a2].zip 2017-04-21 16:14 25 Kb26
Knight Moves (F) (19xx) (Disk 1 of 2).zip 2017-04-21 16:14 60 Kb21
Knight Moves (F) (19xx) (Disk 2 of 2).zip 2017-04-21 16:14 83 Kb22
Knight Orc (E) - Disk 1A.dsk 2017-04-21 16:14 194 Kb24
Knight Orc (E) - Disk 1B.dsk 2017-04-21 16:14 199 Kb24
Knight Orc (UK) (1987) (Disk 1 of 2).zip 2017-04-21 16:14 119 Kb20
Knight Orc (UK) (1987) (Disk 2 of 2).zip 2017-04-21 16:14 110 Kb22
Knight Rider (E).cdt 2017-04-21 16:14 45 Kb23
Knight Rider (UK) (1986).zip 2017-04-21 16:14 20 Kb19
Knight Rider (UK) (1986) [h1].zip 2017-04-21 16:14 32 Kb22
Knight Rider (UK) (1986) [h2].zip 2017-04-21 16:14 21 Kb20
Knight Tyme (E).cdt 2017-04-21 16:14 57 Kb21
Knight Tyme (UK) (1986).zip 2017-04-21 16:14 31 Kb20
Knight Tyme (UK) (1986) [a1].zip 2017-04-21 16:14 31 Kb23
Knight Tyme (UK) (1986) [t1].zip 2017-04-21 16:14 31 Kb17
Knightmare (E).dsk 2017-04-21 16:14 213 Kb26
Knightmare (UK) (1987).zip 2017-04-21 16:14 29 Kb20
Knightmare (UK) (1987) [a1].zip 2017-04-21 16:14 30 Kb20
Knightmare (UK) (1987) [a2].zip 2017-04-21 16:14 30 Kb25
Knightmare (UK) (1987) [t1].zip 2017-04-21 16:14 33 Kb21
Know (G).dsk 2017-04-21 16:14 192 Kb23
Kobayashi Naru (UK) (19xx).zip 2017-04-21 16:14 31 Kb21
Kobayashi Naru (UK) (1987).zip 2017-04-21 16:14 31 Kb20
Kobayashi Naru (UK) (1987) [a1].zip 2017-04-21 16:14 31 Kb20
Kobayashi Naru (UK) (1987) [a2].zip 2017-04-21 16:14 48 Kb25
Kokotoni Wilf (UK) (19xx).zip 2017-04-21 16:14 137 Kb27
Kokotoni Wilf (UK) (19xx) [a1].zip 2017-04-21 16:14 35 Kb22
Kokotoni Wilf (UK) (19xx) [f1][t1].zip 2017-04-21 16:14 37 Kb21
Konami's Golf (UK) (1986).zip 2017-04-21 16:14 24 Kb19
Konami's Golf (UK) (1986) [a1].zip 2017-04-21 16:14 24 Kb23
Konami's Golf (UK) (1986) [a2].zip 2017-04-21 16:14 26 Kb20
Konami Coin-op Hits (UK) (19xx) (Disk 1 of 2).zip 2017-04-21 16:14 50 Kb20
Konami Coin-op Hits (UK) (19xx) (Disk 1 of 2) [a1].zip 2017-04-21 16:14 50 Kb21
Konami Coin-op Hits (UK) (19xx) (Disk 2 of 2).zip 2017-04-21 16:14 65 Kb22
Konami Coin-op Hits (UK) (19xx) (Disk 2 of 2) [a1].zip 2017-04-21 16:14 65 Kb23
Konami Coin-op Hits (UK) (19xx) (Disk 2 of 2) [a2].zip 2017-04-21 16:14 65 Kb22
Kong Strikes Back (UK) (1985).zip 2017-04-21 16:14 21 Kb21
Kong Strikes Back (UK) (1985) [a1].zip 2017-04-21 16:14 21 Kb24
Kong Strikes Back (UK) (1985) [a2].zip 2017-04-21 16:14 23 Kb22
Koronis Rift (E).dsk 2017-04-21 16:14 186 Kb25
Koronis Rift (UK) (1987).zip 2017-04-21 16:14 57 Kb20
Krakout (E).cdt 2017-04-21 16:14 64 Kb22
Krakout (E).dsk 2017-04-21 16:14 171 Kb22
Krakout (UK) (1987).zip 2017-04-21 16:14 31 Kb20
Krakout (UK) (1987) [h1].zip 2017-04-21 16:14 34 Kb21
Kristal (F).dsk 2017-04-21 16:14 191 Kb25
Kristal (UK) (1985).zip 2017-04-21 16:14 16 Kb21
Kristax (UK) (1989).zip 2017-04-21 16:14 9 Kb23
Krypton Factor (UK) (1987) (Disk 1 of 2).zip 2017-04-21 16:14 52 Kb19
Krypton Factor (UK) (1987) (Disk 1 of 2) [a1].zip 2017-04-21 16:14 47 Kb23
Krypton Factor (UK) (1987) (Disk 2 of 2).zip 2017-04-21 16:14 5 Kb20
Krypton Factor (UK) (1987) (Disk 2 of 2) [a1].zip 2017-04-21 16:14 21 Kb22
Kung-Fu (UK) (1986).zip 2017-04-21 16:14 19 Kb20
Kung-Fu Master (E).dsk 2017-04-21 16:14 191 Kb19
Kung-Fu Master (UK) (1986).zip 2017-04-21 16:14 28 Kb19
Kung-Fu Master (UK) (1986) [h1].zip 2017-04-21 16:14 22 Kb20
Kwah (UK) (1987).zip 2017-04-21 16:14 36 Kb17
Kwik Snax (E).cdt 2017-04-21 16:14 65 Kb27
Kwik Snax (UK) (1990).zip 2017-04-21 16:14 22 Kb20
Kwik Snax (UK) (1990) [f1].zip 2017-04-21 16:14 33 Kb23
Kwik Snax (UK) (1990) [h1].zip 2017-04-21 16:14 41 Kb23
Kwik Snax (UK) (1990) [t1].zip 2017-04-21 16:14 33 Kb21
kobayashi Naru (E).cdt 2017-04-21 16:14 74 Kb21
180 Files
-JavaCPC -demo -emu -j-cpc_ani -tools 0-9 A B C D E F G H I J K L M N O P Q R S T U V W X Y Z ZZZ_UNK roms